createdAt,value
2019-05-30T00:01:11.599Z,11.52
2019-05-30T00:03:41.914Z,11.48
2019-05-30T00:06:12.145Z,11.49
2019-05-30T00:08:42.471Z,11.53
2019-05-30T00:11:13.001Z,11.52
2019-05-30T00:13:43.409Z,11.42
2019-05-30T00:16:13.678Z,11.23
2019-05-30T00:18:44.643Z,11.11
2019-05-30T00:21:14.915Z,10.95
2019-05-30T00:23:45.483Z,10.83
2019-05-30T00:26:15.759Z,10.78
2019-05-30T00:28:45.983Z,10.96
2019-05-30T00:31:16.210Z,10.89
2019-05-30T00:33:46.463Z,10.78
2019-05-30T00:36:16.751Z,10.75
2019-05-30T00:38:47.094Z,10.74
2019-05-30T00:41:17.480Z,10.72
2019-05-30T00:43:47.758Z,10.63
2019-05-30T00:46:18.293Z,10.56
2019-05-30T00:48:48.945Z,10.44
2019-05-30T00:51:19.191Z,10.36
2019-05-30T00:53:49.508Z,10.32
2019-05-30T00:56:19.832Z,10.38
2019-05-30T00:58:50.125Z,10.34
2019-05-30T01:01:20.316Z,10.34
2019-05-30T01:03:50.586Z,10.29
2019-05-30T01:06:20.859Z,10.21
2019-05-30T01:08:51.169Z,10.22
2019-05-30T01:11:21.476Z,10.28
2019-05-30T01:13:51.764Z,10.25
2019-05-30T01:16:22.022Z,10.28
2019-05-30T01:18:52.380Z,10.33
2019-05-30T01:21:22.970Z,10.35
2019-05-30T01:23:53.272Z,10.26
2019-05-30T01:26:23.621Z,10.26
2019-05-30T01:28:53.945Z,10.14
2019-05-30T01:31:24.278Z,10.02
2019-05-30T01:33:54.553Z,9.91
2019-05-30T01:36:25.199Z,9.91
2019-05-30T01:38:55.406Z,9.85
2019-05-30T01:41:25.621Z,9.80
2019-05-30T01:43:55.918Z,9.76
2019-05-30T01:46:26.509Z,9.69
2019-05-30T01:48:58.081Z,9.61
2019-05-30T01:51:28.367Z,9.53
2019-05-30T01:53:58.567Z,9.54
2019-05-30T01:56:28.836Z,9.57
2019-05-30T01:58:59.080Z,9.52
2019-05-30T02:01:29.361Z,9.48
2019-05-30T02:04:00.967Z,9.43
2019-05-30T02:06:32.577Z,9.43
2019-05-30T02:09:03.282Z,9.55
2019-05-30T02:11:35.261Z,9.63
2019-05-30T02:14:05.762Z,9.70
2019-05-30T02:19:36.596Z,9.74
2019-05-30T02:22:07.953Z,9.72
2019-05-30T02:24:38.466Z,9.62
2019-05-30T02:27:10.283Z,9.61
2019-05-30T02:29:41.992Z,9.60
2019-05-30T02:32:12.264Z,9.53
2019-05-30T02:34:42.494Z,9.45
2019-05-30T02:37:13.111Z,9.43
2019-05-30T02:39:44.425Z,9.39
2019-05-30T02:42:14.693Z,9.28
2019-05-30T02:44:44.964Z,9.20
2019-05-30T02:47:15.273Z,9.11
2019-05-30T02:49:45.567Z,9.04
2019-05-30T02:52:15.897Z,8.92
2019-05-30T02:54:46.170Z,8.87
2019-05-30T02:57:16.386Z,8.85
2019-05-30T02:59:46.615Z,8.84
2019-05-30T03:02:17.894Z,8.83
2019-05-30T03:04:48.350Z,8.83
2019-05-30T03:07:18.897Z,8.79
2019-05-30T03:09:49.264Z,8.79
2019-05-30T03:12:19.812Z,8.79
2019-05-30T03:14:50.160Z,8.82
2019-05-30T03:17:20.486Z,8.88
2019-05-30T03:19:50.775Z,8.99
2019-05-30T03:22:21.129Z,9.03
2019-05-30T03:24:51.513Z,9.18
2019-05-30T03:27:21.921Z,9.22
2019-05-30T03:29:52.148Z,9.12
2019-05-30T03:33:02.724Z,9.08
2019-05-30T03:34:54.339Z,9.04
2019-05-30T03:37:29.031Z,8.99
2019-05-30T03:39:56.937Z,8.96
2019-05-30T03:42:27.161Z,8.88
2019-05-30T03:44:57.667Z,8.84
2019-05-30T03:47:31.342Z,8.83
2019-05-30T03:50:05.169Z,8.80
2019-05-30T03:52:35.767Z,8.79
2019-05-30T03:55:09.257Z,8.80
2019-05-30T03:57:44.906Z,8.71
2019-05-30T04:00:28.766Z,8.65
2019-05-30T04:03:10.939Z,8.64
2019-05-30T04:05:44.362Z,8.68
2019-05-30T04:08:19.513Z,8.66
2019-05-30T04:10:52.467Z,8.72
2019-05-30T04:13:27.709Z,8.75
2019-05-30T04:15:58.574Z,8.64
2019-05-30T04:18:29.619Z,8.60
2019-05-30T04:20:59.916Z,8.60
2019-05-30T04:23:30.158Z,8.60
2019-05-30T04:26:01.313Z,8.64
2019-05-30T04:28:31.520Z,8.65
2019-05-30T04:31:01.759Z,8.71
2019-05-30T04:33:33.734Z,8.80
2019-05-30T04:36:04.556Z,8.87
2019-05-30T04:38:34.955Z,8.89
2019-05-30T04:41:05.840Z,8.96
2019-05-30T04:43:36.114Z,9.06
2019-05-30T04:46:06.354Z,9.20
2019-05-30T04:48:36.588Z,9.20
2019-05-30T04:51:06.870Z,9.30
2019-05-30T04:53:37.082Z,9.36
2019-05-30T04:56:07.298Z,9.44
2019-05-30T04:58:41.991Z,9.56
2019-05-30T05:01:10.863Z,9.59
2019-05-30T05:03:46.326Z,9.63
2019-05-30T05:06:15.646Z,9.70
2019-05-30T05:08:46.131Z,9.77
2019-05-30T05:11:20.457Z,9.85
2019-05-30T05:13:48.765Z,9.96
2019-05-30T05:16:31.064Z,10.02
2019-05-30T05:18:51.159Z,10.03
2019-05-30T05:21:21.658Z,10.16
2019-05-30T05:23:52.603Z,10.22
2019-05-30T05:26:23.642Z,10.30
2019-05-30T05:28:54.066Z,10.36
2019-05-30T05:31:24.494Z,10.43
2019-05-30T05:33:57.169Z,10.48
2019-05-30T05:36:27.003Z,10.54
2019-05-30T05:38:57.276Z,10.61
2019-05-30T05:41:28.599Z,10.70
2019-05-30T05:43:59.013Z,10.75
2019-05-30T05:46:29.669Z,10.79
2019-05-30T05:49:00.170Z,10.83
2019-05-30T05:51:31.828Z,10.96
2019-05-30T05:54:02.155Z,11.06
2019-05-30T05:56:32.425Z,11.10
2019-05-30T05:59:02.698Z,11.11
2019-05-30T06:01:33.399Z,11.13
2019-05-30T06:04:12.769Z,11.17
2019-05-30T06:06:36.873Z,11.22
2019-05-30T06:09:07.658Z,11.28
2019-05-30T06:11:37.938Z,11.33
2019-05-30T06:14:08.523Z,11.38
2019-05-30T06:16:38.773Z,11.41
2019-05-30T06:19:09.363Z,11.51
2019-05-30T06:21:53.030Z,11.63
2019-05-30T06:24:11.543Z,11.70
2019-05-30T06:26:42.294Z,11.80
2019-05-30T06:29:12.903Z,11.80
2019-05-30T06:31:44.234Z,11.80
2019-05-30T06:34:28.179Z,11.90
2019-05-30T06:36:46.411Z,11.98
2019-05-30T06:39:16.773Z,12.10
2019-05-30T06:41:48.076Z,12.24
2019-05-30T06:44:18.372Z,12.35
2019-05-30T06:46:48.662Z,12.46
2019-05-30T06:49:18.913Z,12.63
2019-05-30T06:51:49.213Z,12.74
2019-05-30T06:54:19.444Z,12.83
2019-05-30T06:56:49.809Z,12.95
2019-05-30T06:59:21.416Z,13.03
2019-05-30T07:01:52.416Z,13.15
2019-05-30T07:04:23.416Z,13.23
2019-05-30T07:06:55.278Z,13.33
2019-05-30T07:09:26.744Z,13.41
2019-05-30T07:11:57.193Z,13.56
2019-05-30T07:14:27.462Z,13.61
2019-05-30T07:16:57.970Z,13.62
2019-05-30T07:19:28.217Z,13.60
2019-05-30T07:21:58.492Z,13.68
2019-05-30T07:24:29.841Z,13.86
2019-05-30T07:27:01.293Z,13.88
2019-05-30T07:29:32.153Z,13.97
2019-05-30T07:32:02.703Z,14.00
2019-05-30T07:34:34.205Z,14.11
2019-05-30T07:37:04.643Z,14.13
2019-05-30T07:39:37.331Z,14.22
2019-05-30T07:42:07.218Z,14.19
2019-05-30T07:44:37.542Z,14.38
2019-05-30T07:47:07.726Z,14.51
2019-05-30T07:49:38.673Z,14.61
2019-05-30T07:52:09.016Z,14.76
2019-05-30T07:54:39.351Z,14.76
2019-05-30T07:57:09.614Z,14.87
2019-05-30T07:59:39.877Z,14.92
2019-05-30T08:02:10.505Z,15.04
2019-05-30T08:04:40.844Z,15.06
2019-05-30T08:07:11.127Z,15.06
2019-05-30T08:09:41.688Z,15.27
2019-05-30T08:12:11.880Z,15.38
2019-05-30T08:14:42.125Z,15.52
2019-05-30T08:17:12.477Z,15.59
2019-05-30T08:19:42.833Z,15.86
2019-05-30T08:22:13.049Z,16.00
2019-05-30T08:24:43.264Z,16.10
2019-05-30T08:27:13.492Z,16.25
2019-05-30T08:29:43.720Z,16.32
2019-05-30T08:32:14.297Z,16.44
2019-05-30T08:34:44.517Z,16.62
2019-05-30T08:37:14.814Z,16.78
2019-05-30T08:39:45.377Z,16.92
2019-05-30T08:42:15.565Z,17.01
2019-05-30T08:44:46.142Z,17.14
2019-05-30T08:47:16.420Z,17.25
2019-05-30T08:49:46.703Z,17.34
2019-05-30T08:52:17.295Z,17.58
2019-05-30T08:54:47.512Z,17.80
2019-05-30T08:57:17.915Z,18.03
2019-05-30T08:59:48.166Z,17.91
2019-05-30T09:02:18.481Z,17.95
2019-05-30T09:04:50.317Z,18.21
2019-05-30T09:07:20.562Z,18.28
2019-05-30T09:09:50.825Z,18.40
2019-05-30T09:12:21.107Z,18.56
2019-05-30T09:14:51.555Z,18.66
2019-05-30T09:17:21.921Z,18.87
2019-05-30T09:19:52.350Z,19.11
2019-05-30T09:22:22.618Z,19.11
2019-05-30T09:24:52.911Z,19.35
2019-05-30T09:27:23.381Z,19.61
2019-05-30T09:29:53.662Z,19.52
2019-05-30T09:32:24.853Z,19.55
2019-05-30T09:34:55.375Z,19.86
2019-05-30T09:37:26.645Z,19.93
2019-05-30T09:39:57.634Z,20.04
2019-05-30T09:42:27.958Z,20.34
2019-05-30T09:44:58.530Z,20.70
2019-05-30T09:47:29.610Z,21.46
2019-05-30T09:50:03.138Z,21.98
2019-05-30T09:52:33.427Z,22.25
2019-05-30T09:55:03.787Z,22.91
2019-05-30T09:57:34.036Z,23.35
2019-05-30T10:00:05.108Z,23.75
2019-05-30T10:02:35.401Z,23.99
2019-05-30T10:05:07.423Z,24.27
2019-05-30T10:07:38.099Z,24.16
2019-05-30T10:10:09.165Z,24.41
2019-05-30T10:12:39.784Z,24.68
2019-05-30T10:15:11.356Z,24.77
2019-05-30T10:17:41.782Z,24.64
2019-05-30T10:20:12.660Z,24.60
2019-05-30T10:22:42.934Z,24.77
2019-05-30T10:25:13.707Z,25.38
2019-05-30T10:27:46.273Z,25.17
2019-05-30T10:30:17.079Z,25.61
2019-05-30T10:32:49.008Z,25.75
2019-05-30T10:35:20.937Z,25.86
2019-05-30T10:37:51.381Z,26.06
2019-05-30T10:40:22.028Z,26.17
2019-05-30T10:42:53.314Z,26.60
2019-05-30T10:45:24.947Z,26.50
2019-05-30T10:47:55.666Z,26.50
2019-05-30T10:50:26.433Z,27.32
2019-05-30T10:52:57.979Z,27.78
2019-05-30T10:55:28.490Z,28.10
2019-05-30T10:57:59.728Z,28.05
2019-05-30T11:00:48.912Z,28.03
2019-05-30T11:03:21.250Z,28.59
2019-05-30T11:06:23.305Z,28.39
2019-05-30T11:08:56.698Z,28.96
2019-05-30T11:11:27.911Z,28.63
2019-05-30T11:13:58.200Z,28.40
2019-05-30T11:16:28.476Z,28.82
2019-05-30T11:18:58.752Z,28.66
2019-05-30T11:21:29.274Z,28.63
2019-05-30T11:23:59.828Z,29.53
2019-05-30T11:26:30.100Z,29.90
2019-05-30T11:29:00.388Z,30.00
2019-05-30T11:31:31.011Z,29.59
2019-05-30T11:34:01.478Z,29.71
2019-05-30T11:36:31.741Z,29.96
2019-05-30T11:39:02.102Z,30.55
2019-05-30T11:41:33.948Z,30.36
2019-05-30T11:44:04.460Z,30.46
2019-05-30T11:46:34.669Z,30.50
2019-05-30T11:49:05.412Z,30.66
2019-05-30T11:51:35.639Z,31.64
2019-05-30T11:54:06.399Z,31.57
2019-05-30T11:56:36.617Z,31.63
2019-05-30T11:59:06.822Z,31.95
2019-05-30T12:01:37.035Z,33.03
2019-05-30T12:04:07.272Z,31.92
2019-05-30T12:06:37.480Z,31.66
2019-05-30T12:09:08.864Z,32.67
2019-05-30T12:11:39.055Z,33.27
2019-05-30T12:14:09.362Z,33.72
2019-05-30T12:16:39.595Z,33.72
2019-05-30T12:19:10.199Z,33.92
2019-05-30T12:21:40.463Z,33.91
2019-05-30T12:24:10.775Z,33.92
2019-05-30T12:26:41.038Z,34.03
2019-05-30T12:29:11.666Z,33.97
2019-05-30T12:31:41.873Z,34.94
2019-05-30T12:34:12.120Z,34.33
2019-05-30T12:36:42.414Z,34.78
2019-05-30T12:39:13.099Z,35.41
2019-05-30T12:41:43.703Z,35.87
2019-05-30T12:44:14.018Z,35.77
2019-05-30T12:46:44.555Z,36.22
2019-05-30T12:49:14.784Z,36.79
2019-05-30T12:51:45.140Z,36.92
2019-05-30T12:54:16.001Z,36.43
2019-05-30T12:56:46.200Z,37.83
2019-05-30T12:59:16.539Z,36.86
2019-05-30T13:01:46.718Z,37.53
2019-05-30T13:04:16.984Z,38.22
2019-05-30T13:06:48.142Z,37.37
2019-05-30T13:09:18.706Z,37.34
2019-05-30T13:11:48.974Z,37.97
2019-05-30T13:14:19.572Z,37.62
2019-05-30T13:16:49.805Z,38.46
2019-05-30T13:19:20.042Z,36.65
2019-05-30T13:21:53.683Z,37.66
2019-05-30T13:24:22.357Z,38.21
2019-05-30T13:26:52.603Z,39.40
2019-05-30T13:29:22.831Z,39.17
2019-05-30T13:31:53.372Z,38.71
2019-05-30T13:34:23.594Z,39.38
2019-05-30T13:36:53.924Z,39.56
2019-05-30T13:39:24.556Z,38.75
2019-05-30T13:41:54.788Z,39.49
2019-05-30T13:44:25.038Z,38.93
2019-05-30T13:46:55.370Z,38.66
2019-05-30T13:49:25.707Z,38.95
2019-05-30T13:51:56.106Z,38.89
2019-05-30T13:54:26.318Z,39.41
2019-05-30T13:56:56.616Z,38.84
2019-05-30T13:59:26.890Z,39.54
2019-05-30T14:01:57.477Z,38.86
2019-05-30T14:04:27.730Z,39.18
2019-05-30T14:06:58.011Z,38.64
2019-05-30T14:09:28.298Z,39.26
2019-05-30T14:11:58.684Z,39.66
2019-05-30T14:14:28.947Z,39.53
2019-05-30T14:16:59.212Z,39.53
2019-05-30T14:19:29.484Z,39.57
2019-05-30T14:22:01.163Z,39.01
2019-05-30T14:24:31.896Z,39.67
2019-05-30T14:27:03.387Z,40.11
2019-05-30T14:29:34.779Z,40.73
2019-05-30T14:32:05.751Z,39.89
2019-05-30T14:34:36.039Z,40.29
2019-05-30T14:37:06.477Z,41.05
2019-05-30T14:39:37.885Z,41.38
2019-05-30T14:42:09.169Z,40.48
2019-05-30T14:44:40.512Z,40.80
2019-05-30T14:47:10.799Z,41.52
2019-05-30T14:49:40.999Z,42.10
2019-05-30T14:52:11.783Z,41.74
2019-05-30T14:54:43.229Z,40.98
2019-05-30T14:57:13.524Z,41.48
2019-05-30T14:59:44.157Z,41.10
2019-05-30T15:02:14.392Z,41.08
2019-05-30T15:04:45.529Z,39.63
2019-05-30T15:07:15.762Z,41.50
2019-05-30T15:09:49.364Z,42.50
2019-05-30T15:12:19.669Z,41.98
2019-05-30T15:14:49.960Z,42.05
2019-05-30T15:17:20.271Z,42.20
2019-05-30T15:19:50.549Z,41.88
2019-05-30T15:22:20.869Z,42.06
2019-05-30T15:24:51.239Z,41.66
2019-05-30T15:27:21.516Z,41.09
2019-05-30T15:29:52.254Z,42.63
2019-05-30T15:32:22.484Z,42.26
2019-05-30T15:34:52.776Z,43.03
2019-05-30T15:37:23.024Z,42.96
2019-05-30T15:39:53.661Z,42.19
2019-05-30T15:42:24.254Z,42.32
2019-05-30T15:44:54.824Z,41.21
2019-05-30T15:47:25.028Z,40.59
2019-05-30T15:49:55.677Z,40.73
2019-05-30T15:52:26.306Z,40.55
2019-05-30T15:54:56.578Z,41.18
2019-05-30T15:57:26.863Z,40.90
2019-05-30T15:59:57.114Z,40.54
2019-05-30T16:02:27.588Z,39.55
2019-05-30T16:04:58.245Z,39.99
2019-05-30T16:07:29.480Z,39.21
2019-05-30T16:10:00.257Z,39.05
2019-05-30T16:12:30.870Z,39.81
2019-05-30T16:15:01.042Z,39.67
2019-05-30T16:17:32.702Z,40.40
2019-05-30T16:20:02.994Z,39.86
2019-05-30T16:22:35.094Z,37.64
2019-05-30T16:25:05.523Z,33.85
2019-05-30T16:27:35.867Z,31.52
2019-05-30T16:30:07.928Z,30.69
2019-05-30T16:32:38.464Z,29.71
2019-05-30T16:35:09.975Z,29.11
2019-05-30T16:37:41.207Z,30.63
2019-05-30T16:40:12.580Z,29.01
2019-05-30T16:42:42.876Z,27.77
2019-05-30T16:45:18.267Z,26.78
2019-05-30T16:47:49.148Z,25.82
2019-05-30T16:50:20.672Z,25.15
2019-05-30T16:52:50.891Z,24.62
2019-05-30T16:55:21.409Z,24.66
2019-05-30T16:57:51.769Z,24.34
2019-05-30T17:00:22.592Z,24.09
2019-05-30T17:02:53.322Z,24.00
2019-05-30T17:05:23.499Z,23.57
2019-05-30T17:07:54.080Z,23.34
2019-05-30T17:10:32.264Z,23.22
2019-05-30T17:12:57.830Z,23.32
2019-05-30T17:15:28.157Z,23.54
2019-05-30T17:17:59.230Z,23.78
2019-05-30T17:20:29.430Z,23.65
2019-05-30T17:23:00.008Z,23.65
2019-05-30T17:25:30.769Z,23.78
2019-05-30T17:28:01.061Z,23.82
2019-05-30T17:30:31.333Z,23.73
2019-05-30T17:33:01.683Z,23.64
2019-05-30T17:35:31.913Z,23.56
2019-05-30T17:38:02.163Z,23.42
2019-05-30T17:40:44.312Z,23.32
2019-05-30T17:43:04.688Z,23.09
2019-05-30T17:45:34.957Z,22.94
2019-05-30T17:48:15.983Z,22.91
2019-05-30T17:50:38.195Z,22.88
2019-05-30T17:53:08.739Z,22.71
2019-05-30T17:55:39.131Z,22.74
2019-05-30T17:58:10.323Z,22.70
2019-05-30T18:00:41.193Z,22.52
2019-05-30T18:03:11.660Z,22.45
2019-05-30T18:05:42.087Z,22.31
2019-05-30T18:08:12.440Z,22.27
2019-05-30T18:10:53.311Z,22.30
2019-05-30T18:13:15.388Z,22.18
2019-05-30T18:15:45.613Z,22.15
2019-05-30T18:18:15.792Z,22.11
2019-05-30T18:20:48.680Z,21.99
2019-05-30T18:23:18.871Z,21.89
2019-05-30T18:25:49.277Z,21.87
2019-05-30T18:28:19.549Z,21.81
2019-05-30T18:30:49.815Z,21.72
2019-05-30T18:33:20.071Z,21.62
2019-05-30T18:35:50.358Z,21.48
2019-05-30T18:38:20.657Z,21.33
2019-05-30T18:40:50.979Z,21.37
2019-05-30T18:43:21.235Z,21.31
2019-05-30T18:45:51.710Z,21.24
2019-05-30T18:48:23.301Z,21.23
2019-05-30T18:50:53.658Z,21.23
2019-05-30T18:53:24.210Z,21.13
2019-05-30T18:55:54.694Z,21.05
2019-05-30T18:58:24.911Z,21.03
2019-05-30T19:00:55.380Z,20.97
2019-05-30T19:03:26.474Z,20.94
2019-05-30T19:05:56.992Z,20.98
2019-05-30T19:08:27.886Z,20.91
2019-05-30T19:10:58.522Z,20.84
2019-05-30T19:13:29.230Z,20.81
2019-05-30T19:15:59.807Z,20.71
2019-05-30T19:18:31.610Z,20.60
2019-05-30T19:21:01.975Z,20.58
2019-05-30T19:23:32.239Z,20.55
2019-05-30T19:26:02.518Z,20.51
2019-05-30T19:28:32.782Z,20.45
2019-05-30T19:31:03.091Z,20.38
2019-05-30T19:33:34.954Z,20.26
2019-05-30T19:36:05.533Z,20.21
2019-05-30T19:38:35.828Z,20.14
2019-05-30T19:41:06.130Z,20.13
2019-05-30T19:43:36.474Z,20.13
2019-05-30T19:46:07.280Z,20.16
2019-05-30T19:48:38.534Z,20.09
2019-05-30T19:51:08.843Z,20.06
2019-05-30T19:53:39.393Z,20.06
2019-05-30T19:56:09.888Z,20.01
2019-05-30T19:58:40.159Z,19.98
2019-05-30T20:01:10.435Z,19.92
2019-05-30T20:03:46.269Z,19.89
2019-05-30T20:06:12.629Z,19.83
2019-05-30T20:08:54.596Z,19.79
2019-05-30T20:11:15.267Z,19.74
2019-05-30T20:13:45.570Z,19.68
2019-05-30T20:16:15.870Z,19.70
2019-05-30T20:18:46.162Z,19.67
2019-05-30T20:21:16.410Z,19.59
2019-05-30T20:23:54.242Z,19.49
2019-05-30T20:26:18.742Z,19.42
2019-05-30T20:28:49.248Z,19.38
2019-05-30T20:31:19.467Z,19.32
2019-05-30T20:33:50.330Z,19.26
2019-05-30T20:36:21.958Z,19.21
2019-05-30T20:38:52.284Z,19.17
2019-05-30T20:41:22.537Z,19.12
2019-05-30T20:43:52.793Z,19.03
2019-05-30T20:46:24.186Z,18.87
2019-05-30T20:48:54.450Z,18.70
2019-05-30T20:51:24.727Z,18.59
2019-05-30T20:53:55.094Z,18.53
2019-05-30T20:56:25.372Z,18.41
2019-05-30T20:58:55.606Z,18.32
2019-05-30T21:01:25.965Z,18.23
2019-05-30T21:03:56.254Z,18.15
2019-05-30T21:06:27.580Z,17.98
2019-05-30T21:08:59.340Z,17.83
2019-05-30T21:11:30.810Z,17.71
2019-05-30T21:14:02.504Z,17.55
2019-05-30T21:16:35.555Z,17.34
2019-05-30T21:19:05.906Z,17.19
2019-05-30T21:21:36.199Z,17.04
2019-05-30T21:24:06.418Z,16.91
2019-05-30T21:26:36.805Z,16.89
2019-05-30T21:29:07.110Z,16.88
2019-05-30T21:31:37.435Z,16.72
2019-05-30T21:34:07.764Z,16.58
2019-05-30T21:36:39.826Z,16.48
2019-05-30T21:39:10.357Z,16.37
2019-05-30T21:41:42.181Z,16.30
2019-05-30T21:44:12.575Z,16.30
2019-05-30T21:46:42.836Z,16.24
2019-05-30T21:49:13.102Z,16.19
2019-05-30T21:51:43.373Z,16.20
2019-05-30T21:54:13.591Z,16.11
2019-05-30T21:56:44.074Z,15.99
2019-05-30T21:59:14.382Z,15.89
2019-05-30T22:01:44.875Z,15.91
2019-05-30T22:04:15.305Z,15.87
2019-05-30T22:06:45.563Z,15.76
2019-05-30T22:09:15.888Z,15.63
2019-05-30T22:11:46.120Z,15.54
2019-05-30T22:14:16.410Z,15.56
2019-05-30T22:16:47.930Z,15.51
2019-05-30T22:19:18.657Z,15.40
2019-05-30T22:21:50.282Z,15.32
2019-05-30T22:24:21.784Z,15.25
2019-05-30T22:26:52.668Z,15.22
2019-05-30T22:29:23.079Z,15.12
2019-05-30T22:31:53.614Z,15.16
2019-05-30T22:34:23.901Z,15.12
2019-05-30T22:36:54.226Z,15.05
2019-05-30T22:39:24.459Z,14.96
2019-05-30T22:41:54.734Z,14.90
2019-05-30T22:44:25.626Z,14.88
2019-05-30T22:46:56.934Z,14.86
2019-05-30T22:49:27.527Z,14.83
2019-05-30T22:51:57.772Z,14.72
2019-05-30T22:54:27.969Z,14.70
2019-05-30T22:57:01.330Z,14.66
2019-05-30T22:59:30.548Z,14.66
2019-05-30T23:02:00.912Z,14.60
2019-05-30T23:04:32.125Z,14.58
2019-05-30T23:07:02.856Z,14.55
2019-05-30T23:09:33.586Z,14.51
2019-05-30T23:12:04.259Z,14.43
2019-05-30T23:14:34.546Z,14.30
2019-05-30T23:17:04.899Z,14.29
2019-05-30T23:19:35.831Z,14.19
2019-05-30T23:22:06.188Z,14.15
2019-05-30T23:24:36.474Z,14.14
2019-05-30T23:27:08.310Z,14.14
2019-05-30T23:29:39.151Z,14.12
2019-05-30T23:32:09.417Z,14.05
2019-05-30T23:34:41.506Z,13.98
2019-05-30T23:37:12.708Z,13.88
2019-05-30T23:39:43.417Z,13.82
2019-05-30T23:42:13.622Z,13.72
2019-05-30T23:44:43.943Z,13.67
2019-05-30T23:47:14.271Z,13.59
2019-05-30T23:49:44.523Z,13.56
2019-05-30T23:52:15.216Z,13.52
2019-05-30T23:54:45.477Z,13.52
2019-05-30T23:57:15.678Z,13.49
2019-05-30T23:59:45.930Z,13.49
